sensor_id;sensor_type;location;lat;lon;timestamp;temperature;humidity
18998;DHT22;9632;51.018;4.284;2023-03-01T00:00:41;3.00;99.90
18998;DHT22;9632;51.018;4.284;2023-03-01T00:03:07;2.90;99.90
18998;DHT22;9632;51.018;4.284;2023-03-01T00:05:32;2.90;99.90
18998;DHT22;9632;51.018;4.284;2023-03-01T00:07:58;2.90;99.90
18998;DHT22;9632;51.018;4.284;2023-03-01T00:10:24;2.90;99.90
18998;DHT22;9632;51.018;4.284;2023-03-01T00:12:49;2.90;99.90
18998;DHT22;9632;51.018;4.284;2023-03-01T00:15:15;2.90;99.90
18998;DHT22;9632;51.018;4.284;2023-03-01T00:17:40;2.90;99.90
18998;DHT22;9632;51.018;4.284;2023-03-01T00:20:07;2.90;99.90
18998;DHT22;9632;51.018;4.284;2023-03-01T00:22:36;2.80;99.90
18998;DHT22;9632;51.018;4.284;2023-03-01T00:25:03;2.90;99.90
18998;DHT22;9632;51.018;4.284;2023-03-01T00:27:29;2.90;99.90
18998;DHT22;9632;51.018;4.284;2023-03-01T00:29:54;2.80;99.90
18998;DHT22;9632;51.018;4.284;2023-03-01T00:32:20;2.80;99.90
18998;DHT22;9632;51.018;4.284;2023-03-01T00:34:46;2.80;99.90
18998;DHT22;9632;51.018;4.284;2023-03-01T00:37:20;2.70;99.90
18998;DHT22;9632;51.018;4.284;2023-03-01T00:39:46;2.70;99.90
18998;DHT22;9632;51.018;4.284;2023-03-01T00:42:12;2.70;99.90
18998;DHT22;9632;51.018;4.284;2023-03-01T00:44:37;2.70;99.90
18998;DHT22;9632;51.018;4.284;2023-03-01T00:47:03;2.60;99.90
18998;DHT22;9632;51.018;4.284;2023-03-01T00:49:29;2.60;99.90
18998;DHT22;9632;51.018;4.284;2023-03-01T00:51:54;2.60;99.90
18998;DHT22;9632;51.018;4.284;2023-03-01T00:54:20;2.50;99.90
18998;DHT22;9632;51.018;4.284;2023-03-01T00:56:46;2.50;99.90
18998;DHT22;9632;51.018;4.284;2023-03-01T00:59:11;2.60;99.90
18998;DHT22;9632;51.018;4.284;2023-03-01T01:01:37;2.50;99.90
18998;DHT22;9632;51.018;4.284;2023-03-01T01:04:05;2.50;99.90
18998;DHT22;9632;51.018;4.284;2023-03-01T01:06:40;2.50;99.90
18998;DHT22;9632;51.018;4.284;2023-03-01T01:09:08;2.50;99.90
18998;DHT22;9632;51.018;4.284;2023-03-01T01:11:35;2.50;99.90
18998;DHT22;9632;51.018;4.284;2023-03-01T01:14:02;2.40;99.90
18998;DHT22;9632;51.018;4.284;2023-03-01T01:16:28;2.40;99.90
18998;DHT22;9632;51.018;4.284;2023-03-01T01:18:55;2.40;99.90
18998;DHT22;9632;51.018;4.284;2023-03-01T01:21:23;2.40;99.90
18998;DHT22;9632;51.018;4.284;2023-03-01T01:23:50;2.40;99.90
18998;DHT22;9632;51.018;4.284;2023-03-01T01:26:18;2.40;99.90
18998;DHT22;9632;51.018;4.284;2023-03-01T01:28:45;2.40;99.90
18998;DHT22;9632;51.018;4.284;2023-03-01T01:31:10;2.30;99.90
18998;DHT22;9632;51.018;4.284;2023-03-01T01:33:37;2.40;99.90
18998;DHT22;9632;51.018;4.284;2023-03-01T01:36:04;2.30;99.90
18998;DHT22;9632;51.018;4.284;2023-03-01T01:38:29;2.30;99.90
18998;DHT22;9632;51.018;4.284;2023-03-01T01:40:55;2.20;99.90
18998;DHT22;9632;51.018;4.284;2023-03-01T01:43:36;2.20;99.90
18998;DHT22;9632;51.018;4.284;2023-03-01T01:48:55;2.20;99.90
18998;DHT22;9632;51.018;4.284;2023-03-01T01:51:29;2.20;99.90
18998;DHT22;9632;51.018;4.284;2023-03-01T01:54:08;2.20;99.90
18998;DHT22;9632;51.018;4.284;2023-03-01T01:56:37;2.30;99.90
18998;DHT22;9632;51.018;4.284;2023-03-01T01:59:05;2.30;99.90
18998;DHT22;9632;51.018;4.284;2023-03-01T02:01:31;2.20;99.90
18998;DHT22;9632;51.018;4.284;2023-03-01T02:03:57;2.20;99.90
18998;DHT22;9632;51.018;4.284;2023-03-01T02:06:34;2.10;99.90
18998;DHT22;9632;51.018;4.284;2023-03-01T02:09:06;2.10;99.90
18998;DHT22;9632;51.018;4.284;2023-03-01T02:11:33;2.10;99.90
18998;DHT22;9632;51.018;4.284;2023-03-01T02:13:59;2.10;99.90
18998;DHT22;9632;51.018;4.284;2023-03-01T02:16:26;2.00;99.90
18998;DHT22;9632;51.018;4.284;2023-03-01T02:18:52;2.00;99.90
18998;DHT22;9632;51.018;4.284;2023-03-01T02:23:50;2.00;99.90
18998;DHT22;9632;51.018;4.284;2023-03-01T02:26:24;2.00;99.90
18998;DHT22;9632;51.018;4.284;2023-03-01T02:28:53;2.00;99.90
18998;DHT22;9632;51.018;4.284;2023-03-01T02:31:20;2.00;99.90
18998;DHT22;9632;51.018;4.284;2023-03-01T02:34:05;1.90;99.90
18998;DHT22;9632;51.018;4.284;2023-03-01T02:36:44;1.90;99.90
18998;DHT22;9632;51.018;4.284;2023-03-01T02:39:15;1.90;99.90
18998;DHT22;9632;51.018;4.284;2023-03-01T02:41:46;1.90;99.90
18998;DHT22;9632;51.018;4.284;2023-03-01T02:44:12;1.80;99.90
18998;DHT22;9632;51.018;4.284;2023-03-01T02:46:50;1.80;99.90
18998;DHT22;9632;51.018;4.284;2023-03-01T02:49:26;1.70;99.90
18998;DHT22;9632;51.018;4.284;2023-03-01T02:55:07;1.70;99.90
18998;DHT22;9632;51.018;4.284;2023-03-01T02:57:36;1.70;99.90
18998;DHT22;9632;51.018;4.284;2023-03-01T03:00:07;1.70;99.90
18998;DHT22;9632;51.018;4.284;2023-03-01T03:02:34;1.60;99.90
18998;DHT22;9632;51.018;4.284;2023-03-01T03:05:11;1.60;99.90
18998;DHT22;9632;51.018;4.284;2023-03-01T03:07:40;1.60;99.90
18998;DHT22;9632;51.018;4.284;2023-03-01T03:10:09;1.60;99.90
18998;DHT22;9632;51.018;4.284;2023-03-01T03:12:37;1.60;99.90
18998;DHT22;9632;51.018;4.284;2023-03-01T03:15:03;1.60;99.90
18998;DHT22;9632;51.018;4.284;2023-03-01T03:17:36;1.60;99.90
18998;DHT22;9632;51.018;4.284;2023-03-01T03:20:04;1.50;99.90
18998;DHT22;9632;51.018;4.284;2023-03-01T03:22:31;1.60;99.90
18998;DHT22;9632;51.018;4.284;2023-03-01T03:24:59;1.60;99.90
18998;DHT22;9632;51.018;4.284;2023-03-01T03:27:25;1.50;99.90
18998;DHT22;9632;51.018;4.284;2023-03-01T03:29:50;1.50;99.90
18998;DHT22;9632;51.018;4.284;2023-03-01T03:32:16;1.50;99.90
18998;DHT22;9632;51.018;4.284;2023-03-01T03:34:41;1.50;99.90
18998;DHT22;9632;51.018;4.284;2023-03-01T03:37:07;1.50;99.90
18998;DHT22;9632;51.018;4.284;2023-03-01T03:39:53;1.50;99.90
18998;DHT22;9632;51.018;4.284;2023-03-01T03:42:20;1.50;99.90
18998;DHT22;9632;51.018;4.284;2023-03-01T03:44:47;1.50;99.90
18998;DHT22;9632;51.018;4.284;2023-03-01T03:47:13;1.50;99.90
18998;DHT22;9632;51.018;4.284;2023-03-01T03:49:38;1.50;99.90
18998;DHT22;9632;51.018;4.284;2023-03-01T03:52:04;1.50;99.90
18998;DHT22;9632;51.018;4.284;2023-03-01T03:54:29;1.50;99.90
18998;DHT22;9632;51.018;4.284;2023-03-01T03:56:55;1.50;99.90
18998;DHT22;9632;51.018;4.284;2023-03-01T03:59:21;1.50;99.90
18998;DHT22;9632;51.018;4.284;2023-03-01T04:01:46;1.40;99.90
18998;DHT22;9632;51.018;4.284;2023-03-01T04:04:12;1.40;99.90
18998;DHT22;9632;51.018;4.284;2023-03-01T04:06:38;1.40;99.90
18998;DHT22;9632;51.018;4.284;2023-03-01T04:09:04;1.40;99.90
18998;DHT22;9632;51.018;4.284;2023-03-01T04:11:30;1.40;99.90
18998;DHT22;9632;51.018;4.284;2023-03-01T04:13:57;1.30;99.90
18998;DHT22;9632;51.018;4.284;2023-03-01T04:16:24;1.40;99.90
18998;DHT22;9632;51.018;4.284;2023-03-01T04:18:50;1.40;99.90
18998;DHT22;9632;51.018;4.284;2023-03-01T04:21:16;1.30;99.90
18998;DHT22;9632;51.018;4.284;2023-03-01T04:23:41;1.30;99.90
18998;DHT22;9632;51.018;4.284;2023-03-01T04:26:07;1.30;99.90
18998;DHT22;9632;51.018;4.284;2023-03-01T04:28:39;1.30;99.90
18998;DHT22;9632;51.018;4.284;2023-03-01T04:31:08;1.30;99.90
18998;DHT22;9632;51.018;4.284;2023-03-01T04:33:46;1.30;99.90
18998;DHT22;9632;51.018;4.284;2023-03-01T04:36:14;1.40;99.90
18998;DHT22;9632;51.018;4.284;2023-03-01T04:38:40;1.40;99.90
18998;DHT22;9632;51.018;4.284;2023-03-01T04:41:08;1.30;99.90
18998;DHT22;9632;51.018;4.284;2023-03-01T04:43:34;1.30;99.90
18998;DHT22;9632;51.018;4.284;2023-03-01T04:46:04;1.30;99.90
18998;DHT22;9632;51.018;4.284;2023-03-01T04:48:32;1.30;99.90
18998;DHT22;9632;51.018;4.284;2023-03-01T04:51:01;1.30;99.90
18998;DHT22;9632;51.018;4.284;2023-03-01T04:53:27;1.30;99.90
18998;DHT22;9632;51.018;4.284;2023-03-01T04:55:57;1.30;99.90
18998;DHT22;9632;51.018;4.284;2023-03-01T04:58:24;1.40;99.90
18998;DHT22;9632;51.018;4.284;2023-03-01T05:00:50;1.30;99.90
18998;DHT22;9632;51.018;4.284;2023-03-01T05:03:16;1.40;99.90
18998;DHT22;9632;51.018;4.284;2023-03-01T05:05:46;1.40;99.90
18998;DHT22;9632;51.018;4.284;2023-03-01T05:08:13;1.40;99.90
18998;DHT22;9632;51.018;4.284;2023-03-01T05:10:50;1.40;99.90
18998;DHT22;9632;51.018;4.284;2023-03-01T05:13:17;1.30;99.90
18998;DHT22;9632;51.018;4.284;2023-03-01T05:15:54;1.30;99.90
18998;DHT22;9632;51.018;4.284;2023-03-01T05:18:21;1.30;99.90
18998;DHT22;9632;51.018;4.284;2023-03-01T05:20:46;1.30;99.90
18998;DHT22;9632;51.018;4.284;2023-03-01T05:23:12;1.20;99.90
18998;DHT22;9632;51.018;4.284;2023-03-01T05:25:38;1.30;99.90
18998;DHT22;9632;51.018;4.284;2023-03-01T05:28:07;1.30;99.90
18998;DHT22;9632;51.018;4.284;2023-03-01T05:30:34;1.30;99.90
18998;DHT22;9632;51.018;4.284;2023-03-01T05:33:00;1.30;99.90
18998;DHT22;9632;51.018;4.284;2023-03-01T05:35:26;1.30;99.90
18998;DHT22;9632;51.018;4.284;2023-03-01T05:37:52;1.30;99.90
18998;DHT22;9632;51.018;4.284;2023-03-01T05:40:22;1.30;99.90
18998;DHT22;9632;51.018;4.284;2023-03-01T05:42:54;1.20;99.90
18998;DHT22;9632;51.018;4.284;2023-03-01T05:45:21;1.20;99.90
18998;DHT22;9632;51.018;4.284;2023-03-01T05:47:48;1.20;99.90
18998;DHT22;9632;51.018;4.284;2023-03-01T05:50:16;1.20;99.90
18998;DHT22;9632;51.018;4.284;2023-03-01T05:52:54;1.20;99.90
18998;DHT22;9632;51.018;4.284;2023-03-01T05:55:22;1.20;99.90
18998;DHT22;9632;51.018;4.284;2023-03-01T05:57:48;1.20;99.90
18998;DHT22;9632;51.018;4.284;2023-03-01T06:00:16;1.20;99.90
18998;DHT22;9632;51.018;4.284;2023-03-01T06:02:42;1.20;99.90
18998;DHT22;9632;51.018;4.284;2023-03-01T06:05:09;1.30;99.90
18998;DHT22;9632;51.018;4.284;2023-03-01T06:07:35;1.20;99.90
18998;DHT22;9632;51.018;4.284;2023-03-01T06:10:02;1.20;99.90
18998;DHT22;9632;51.018;4.284;2023-03-01T06:12:36;1.20;99.90
18998;DHT22;9632;51.018;4.284;2023-03-01T06:15:03;1.20;99.90
18998;DHT22;9632;51.018;4.284;2023-03-01T06:17:30;1.20;99.90
18998;DHT22;9632;51.018;4.284;2023-03-01T06:19:57;1.20;99.90
18998;DHT22;9632;51.018;4.284;2023-03-01T06:22:22;1.10;99.90
18998;DHT22;9632;51.018;4.284;2023-03-01T06:24:48;1.10;99.90
18998;DHT22;9632;51.018;4.284;2023-03-01T06:27:13;1.10;99.90
18998;DHT22;9632;51.018;4.284;2023-03-01T06:29:39;1.20;99.90
18998;DHT22;9632;51.018;4.284;2023-03-01T06:32:05;1.20;99.90
18998;DHT22;9632;51.018;4.284;2023-03-01T06:34:31;1.20;99.90
18998;DHT22;9632;51.018;4.284;2023-03-01T06:36:57;1.20;99.90
18998;DHT22;9632;51.018;4.284;2023-03-01T06:39:23;1.20;99.90
18998;DHT22;9632;51.018;4.284;2023-03-01T06:41:48;1.20;99.90
18998;DHT22;9632;51.018;4.284;2023-03-01T06:44:14;1.20;99.90
18998;DHT22;9632;51.018;4.284;2023-03-01T06:46:40;1.20;99.90
18998;DHT22;9632;51.018;4.284;2023-03-01T06:49:06;1.20;99.90
18998;DHT22;9632;51.018;4.284;2023-03-01T06:51:35;1.20;99.90
18998;DHT22;9632;51.018;4.284;2023-03-01T06:54:02;1.20;99.90
18998;DHT22;9632;51.018;4.284;2023-03-01T06:56:27;1.20;99.90
18998;DHT22;9632;51.018;4.284;2023-03-01T06:58:53;1.10;99.90
18998;DHT22;9632;51.018;4.284;2023-03-01T07:01:18;1.20;99.90
18998;DHT22;9632;51.018;4.284;2023-03-01T07:03:44;1.20;99.90
18998;DHT22;9632;51.018;4.284;2023-03-01T07:06:10;1.20;99.90
18998;DHT22;9632;51.018;4.284;2023-03-01T07:08:37;1.20;99.90
18998;DHT22;9632;51.018;4.284;2023-03-01T07:11:03;1.30;99.90
18998;DHT22;9632;51.018;4.284;2023-03-01T07:13:29;1.40;99.90
18998;DHT22;9632;51.018;4.284;2023-03-01T07:15:55;1.50;99.90
18998;DHT22;9632;51.018;4.284;2023-03-01T07:18:21;1.60;99.90
18998;DHT22;9632;51.018;4.284;2023-03-01T07:20:47;1.70;99.90
18998;DHT22;9632;51.018;4.284;2023-03-01T07:23:12;1.80;99.90
18998;DHT22;9632;51.018;4.284;2023-03-01T07:25:38;1.90;99.90
18998;DHT22;9632;51.018;4.284;2023-03-01T07:28:04;2.00;99.90
18998;DHT22;9632;51.018;4.284;2023-03-01T07:30:29;2.10;99.90
18998;DHT22;9632;51.018;4.284;2023-03-01T07:32:56;2.20;99.90
18998;DHT22;9632;51.018;4.284;2023-03-01T07:35:23;2.20;99.90
18998;DHT22;9632;51.018;4.284;2023-03-01T07:37:50;2.30;99.90
18998;DHT22;9632;51.018;4.284;2023-03-01T07:40:22;2.40;99.90
18998;DHT22;9632;51.018;4.284;2023-03-01T07:42:49;2.60;99.90
18998;DHT22;9632;51.018;4.284;2023-03-01T07:45:20;2.70;99.90
18998;DHT22;9632;51.018;4.284;2023-03-01T07:47:46;2.70;99.90
18998;DHT22;9632;51.018;4.284;2023-03-01T07:50:11;2.90;99.90
18998;DHT22;9632;51.018;4.284;2023-03-01T07:52:39;3.00;99.90
18998;DHT22;9632;51.018;4.284;2023-03-01T07:55:05;3.00;99.90
18998;DHT22;9632;51.018;4.284;2023-03-01T07:57:30;3.10;99.90
18998;DHT22;9632;51.018;4.284;2023-03-01T07:59:59;3.10;99.90
18998;DHT22;9632;51.018;4.284;2023-03-01T08:02:25;3.20;99.90
18998;DHT22;9632;51.018;4.284;2023-03-01T08:04:51;3.20;99.90
18998;DHT22;9632;51.018;4.284;2023-03-01T08:07:17;3.20;99.90
18998;DHT22;9632;51.018;4.284;2023-03-01T08:09:45;3.30;99.90
18998;DHT22;9632;51.018;4.284;2023-03-01T08:12:12;3.40;99.90
18998;DHT22;9632;51.018;4.284;2023-03-01T08:14:38;3.40;99.90
18998;DHT22;9632;51.018;4.284;2023-03-01T08:17:03;3.50;99.90
18998;DHT22;9632;51.018;4.284;2023-03-01T08:19:30;3.50;99.90
18998;DHT22;9632;51.018;4.284;2023-03-01T08:21:58;3.60;99.90
18998;DHT22;9632;51.018;4.284;2023-03-01T08:24:25;3.60;99.90
18998;DHT22;9632;51.018;4.284;2023-03-01T08:26:51;3.70;99.90
18998;DHT22;9632;51.018;4.284;2023-03-01T08:29:16;3.80;99.90
18998;DHT22;9632;51.018;4.284;2023-03-01T08:31:42;3.80;99.90
18998;DHT22;9632;51.018;4.284;2023-03-01T08:34:11;4.00;99.90
18998;DHT22;9632;51.018;4.284;2023-03-01T08:36:39;4.00;99.90
18998;DHT22;9632;51.018;4.284;2023-03-01T08:39:06;3.90;99.90
18998;DHT22;9632;51.018;4.284;2023-03-01T08:41:32;3.90;99.90
18998;DHT22;9632;51.018;4.284;2023-03-01T08:43:58;4.10;99.90
18998;DHT22;9632;51.018;4.284;2023-03-01T08:46:43;4.10;99.90
18998;DHT22;9632;51.018;4.284;2023-03-01T08:49:12;4.20;99.90
18998;DHT22;9632;51.018;4.284;2023-03-01T08:51:39;4.30;99.90
18998;DHT22;9632;51.018;4.284;2023-03-01T08:54:06;4.40;99.90
18998;DHT22;9632;51.018;4.284;2023-03-01T08:56:32;4.30;99.90
18998;DHT22;9632;51.018;4.284;2023-03-01T08:58:58;4.40;99.90
18998;DHT22;9632;51.018;4.284;2023-03-01T09:01:24;4.50;99.90
18998;DHT22;9632;51.018;4.284;2023-03-01T09:03:50;4.40;99.90
18998;DHT22;9632;51.018;4.284;2023-03-01T09:06:16;4.50;99.90
18998;DHT22;9632;51.018;4.284;2023-03-01T09:08:44;4.50;99.90
18998;DHT22;9632;51.018;4.284;2023-03-01T09:11:13;4.60;99.90
18998;DHT22;9632;51.018;4.284;2023-03-01T09:13:39;4.70;99.90
18998;DHT22;9632;51.018;4.284;2023-03-01T09:16:06;4.80;99.90
18998;DHT22;9632;51.018;4.284;2023-03-01T09:18:33;4.80;99.90
18998;DHT22;9632;51.018;4.284;2023-03-01T09:21:10;4.80;99.90
18998;DHT22;9632;51.018;4.284;2023-03-01T09:23:38;4.90;99.90
18998;DHT22;9632;51.018;4.284;2023-03-01T09:26:09;4.90;99.90
18998;DHT22;9632;51.018;4.284;2023-03-01T09:28:36;4.90;99.90
18998;DHT22;9632;51.018;4.284;2023-03-01T09:31:02;5.00;99.90
18998;DHT22;9632;51.018;4.284;2023-03-01T09:33:32;5.10;99.90
18998;DHT22;9632;51.018;4.284;2023-03-01T09:36:04;5.10;99.90
18998;DHT22;9632;51.018;4.284;2023-03-01T09:38:30;5.10;99.90
18998;DHT22;9632;51.018;4.284;2023-03-01T09:40:55;5.10;99.90
18998;DHT22;9632;51.018;4.284;2023-03-01T09:45:48;5.30;99.90
18998;DHT22;9632;51.018;4.284;2023-03-01T09:48:20;5.40;99.90
18998;DHT22;9632;51.018;4.284;2023-03-01T09:50:47;5.50;99.90
18998;DHT22;9632;51.018;4.284;2023-03-01T09:53:22;5.60;99.90
18998;DHT22;9632;51.018;4.284;2023-03-01T09:56:02;5.50;99.90
18998;DHT22;9632;51.018;4.284;2023-03-01T10:06:27;5.50;99.90
18998;DHT22;9632;51.018;4.284;2023-03-01T10:08:57;5.60;99.90
18998;DHT22;9632;51.018;4.284;2023-03-01T10:11:30;5.70;99.90
18998;DHT22;9632;51.018;4.284;2023-03-01T10:16:47;5.70;99.90
18998;DHT22;9632;51.018;4.284;2023-03-01T10:19:36;5.60;99.90
18998;DHT22;9632;51.018;4.284;2023-03-01T10:24:47;5.70;99.90
18998;DHT22;9632;51.018;4.284;2023-03-01T10:27:24;5.80;99.90
18998;DHT22;9632;51.018;4.284;2023-03-01T10:29:59;5.90;99.90
18998;DHT22;9632;51.018;4.284;2023-03-01T10:32:29;6.10;99.90
18998;DHT22;9632;51.018;4.284;2023-03-01T10:34:55;6.20;99.90
18998;DHT22;9632;51.018;4.284;2023-03-01T10:37:22;6.10;99.90
18998;DHT22;9632;51.018;4.284;2023-03-01T10:40:08;6.10;99.90
18998;DHT22;9632;51.018;4.284;2023-03-01T10:42:39;6.10;99.90
18998;DHT22;9632;51.018;4.284;2023-03-01T10:50:38;6.30;99.90
18998;DHT22;9632;51.018;4.284;2023-03-01T10:53:22;6.20;99.90
18998;DHT22;9632;51.018;4.284;2023-03-01T10:56:15;6.10;99.90
18998;DHT22;9632;51.018;4.284;2023-03-01T10:59:02;6.10;99.90
18998;DHT22;9632;51.018;4.284;2023-03-01T11:01:34;6.20;99.90
18998;DHT22;9632;51.018;4.284;2023-03-01T11:06:42;6.30;99.90
18998;DHT22;9632;51.018;4.284;2023-03-01T11:09:23;6.30;99.90
18998;DHT22;9632;51.018;4.284;2023-03-01T11:11:54;6.40;99.90
18998;DHT22;9632;51.018;4.284;2023-03-01T11:16:48;6.60;99.90
18998;DHT22;9632;51.018;4.284;2023-03-01T11:19:21;6.70;99.90
18998;DHT22;9632;51.018;4.284;2023-03-01T11:22:03;6.60;99.90
18998;DHT22;9632;51.018;4.284;2023-03-01T11:27:03;6.70;99.90
18998;DHT22;9632;51.018;4.284;2023-03-01T11:29:50;6.80;99.90
18998;DHT22;9632;51.018;4.284;2023-03-01T11:32:20;6.80;99.90
18998;DHT22;9632;51.018;4.284;2023-03-01T11:35:14;7.00;99.90
18998;DHT22;9632;51.018;4.284;2023-03-01T11:40:50;7.20;99.90
18998;DHT22;9632;51.018;4.284;2023-03-01T11:43:40;7.20;99.90
18998;DHT22;9632;51.018;4.284;2023-03-01T11:49:00;7.20;99.90
18998;DHT22;9632;51.018;4.284;2023-03-01T11:56:39;7.20;99.90
18998;DHT22;9632;51.018;4.284;2023-03-01T12:01:56;7.10;99.90
18998;DHT22;9632;51.018;4.284;2023-03-01T12:12:32;7.20;99.90
18998;DHT22;9632;51.018;4.284;2023-03-01T12:20:37;7.20;99.90
18998;DHT22;9632;51.018;4.284;2023-03-01T12:50:49;7.60;99.90
18998;DHT22;9632;51.018;4.284;2023-03-01T12:53:29;7.60;99.90
18998;DHT22;9632;51.018;4.284;2023-03-01T12:56:07;7.60;99.90
18998;DHT22;9632;51.018;4.284;2023-03-01T13:01:31;7.60;99.90
18998;DHT22;9632;51.018;4.284;2023-03-01T13:04:11;7.50;99.90
18998;DHT22;9632;51.018;4.284;2023-03-01T13:11:42;7.70;99.90
18998;DHT22;9632;51.018;4.284;2023-03-01T13:16:47;7.70;99.90
18998;DHT22;9632;51.018;4.284;2023-03-01T13:19:22;7.80;99.90
18998;DHT22;9632;51.018;4.284;2023-03-01T13:21:50;7.70;99.90
18998;DHT22;9632;51.018;4.284;2023-03-01T13:24:43;7.70;99.90
18998;DHT22;9632;51.018;4.284;2023-03-01T13:29:55;7.80;99.90
18998;DHT22;9632;51.018;4.284;2023-03-01T13:32:27;7.80;99.90
18998;DHT22;9632;51.018;4.284;2023-03-01T13:34:59;7.80;99.90
18998;DHT22;9632;51.018;4.284;2023-03-01T13:37:33;7.90;99.90
18998;DHT22;9632;51.018;4.284;2023-03-01T13:40:02;7.80;99.90
18998;DHT22;9632;51.018;4.284;2023-03-01T13:42:37;7.80;99.90
18998;DHT22;9632;51.018;4.284;2023-03-01T13:47:46;7.90;99.90
18998;DHT22;9632;51.018;4.284;2023-03-01T13:50:21;8.00;99.90
18998;DHT22;9632;51.018;4.284;2023-03-01T13:53:00;8.00;99.90
18998;DHT22;9632;51.018;4.284;2023-03-01T13:55:41;8.00;99.90
18998;DHT22;9632;51.018;4.284;2023-03-01T14:03:26;8.10;99.90
18998;DHT22;9632;51.018;4.284;2023-03-01T14:06:26;8.10;99.90
18998;DHT22;9632;51.018;4.284;2023-03-01T14:09:03;8.10;99.90
18998;DHT22;9632;51.018;4.284;2023-03-01T14:15:04;8.20;99.90
18998;DHT22;9632;51.018;4.284;2023-03-01T14:17:42;8.20;99.90
18998;DHT22;9632;51.018;4.284;2023-03-01T14:20:23;8.20;99.90
18998;DHT22;9632;51.018;4.284;2023-03-01T14:22:53;8.20;99.90
18998;DHT22;9632;51.018;4.284;2023-03-01T14:30:46;8.10;99.90
18998;DHT22;9632;51.018;4.284;2023-03-01T14:38:27;8.00;99.90
18998;DHT22;9632;51.018;4.284;2023-03-01T14:40:57;8.00;99.90
18998;DHT22;9632;51.018;4.284;2023-03-01T14:43:24;8.00;99.90
18998;DHT22;9632;51.018;4.284;2023-03-01T14:45:51;8.10;99.90
18998;DHT22;9632;51.018;4.284;2023-03-01T14:48:18;8.10;99.90
18998;DHT22;9632;51.018;4.284;2023-03-01T14:50:45;8.20;99.90
18998;DHT22;9632;51.018;4.284;2023-03-01T14:53:28;8.20;99.90
18998;DHT22;9632;51.018;4.284;2023-03-01T14:56:00;8.30;99.90
18998;DHT22;9632;51.018;4.284;2023-03-01T14:58:32;8.30;99.90
18998;DHT22;9632;51.018;4.284;2023-03-01T15:01:01;8.10;99.80
18998;DHT22;9632;51.018;4.284;2023-03-01T15:03:40;8.10;99.90
18998;DHT22;9632;51.018;4.284;2023-03-01T15:06:09;8.10;99.90
18998;DHT22;9632;51.018;4.284;2023-03-01T15:08:35;8.10;99.90
18998;DHT22;9632;51.018;4.284;2023-03-01T15:11:27;8.10;99.90
18998;DHT22;9632;51.018;4.284;2023-03-01T15:13:53;8.10;99.90
18998;DHT22;9632;51.018;4.284;2023-03-01T15:16:32;8.20;99.90
18998;DHT22;9632;51.018;4.284;2023-03-01T15:19:06;8.20;99.90
18998;DHT22;9632;51.018;4.284;2023-03-01T15:21:37;8.10;99.90
18998;DHT22;9632;51.018;4.284;2023-03-01T15:26:49;8.10;99.90
18998;DHT22;9632;51.018;4.284;2023-03-01T15:29:29;8.10;99.90
18998;DHT22;9632;51.018;4.284;2023-03-01T15:31:57;8.10;99.90
18998;DHT22;9632;51.018;4.284;2023-03-01T15:34:26;8.10;99.90
18998;DHT22;9632;51.018;4.284;2023-03-01T15:36:54;8.10;99.90
18998;DHT22;9632;51.018;4.284;2023-03-01T15:39:35;8.10;99.90
18998;DHT22;9632;51.018;4.284;2023-03-01T15:45:21;8.20;99.90
18998;DHT22;9632;51.018;4.284;2023-03-01T15:47:55;8.10;99.70
18998;DHT22;9632;51.018;4.284;2023-03-01T15:50:29;8.00;99.40
18998;DHT22;9632;51.018;4.284;2023-03-01T15:52:58;8.00;99.80
18998;DHT22;9632;51.018;4.284;2023-03-01T15:55:27;7.90;99.50
18998;DHT22;9632;51.018;4.284;2023-03-01T15:58:10;7.90;99.90
18998;DHT22;9632;51.018;4.284;2023-03-01T16:00:37;7.80;99.50
18998;DHT22;9632;51.018;4.284;2023-03-01T16:03:04;7.70;99.90
18998;DHT22;9632;51.018;4.284;2023-03-01T16:05:34;7.70;99.90
18998;DHT22;9632;51.018;4.284;2023-03-01T16:08:00;7.80;99.90
18998;DHT22;9632;51.018;4.284;2023-03-01T16:10:26;7.80;99.90
18998;DHT22;9632;51.018;4.284;2023-03-01T16:12:52;7.80;99.90
18998;DHT22;9632;51.018;4.284;2023-03-01T16:17:49;7.80;99.90
18998;DHT22;9632;51.018;4.284;2023-03-01T16:20:15;7.90;99.90
18998;DHT22;9632;51.018;4.284;2023-03-01T16:22:45;7.90;99.90
18998;DHT22;9632;51.018;4.284;2023-03-01T16:25:13;7.90;99.90
18998;DHT22;9632;51.018;4.284;2023-03-01T16:27:42;7.90;99.90
18998;DHT22;9632;51.018;4.284;2023-03-01T16:30:08;7.90;99.90
18998;DHT22;9632;51.018;4.284;2023-03-01T16:32:38;7.90;99.90
18998;DHT22;9632;51.018;4.284;2023-03-01T16:35:05;7.90;99.90
18998;DHT22;9632;51.018;4.284;2023-03-01T16:37:33;7.90;99.70
18998;DHT22;9632;51.018;4.284;2023-03-01T16:39:59;7.90;99.90
18998;DHT22;9632;51.018;4.284;2023-03-01T16:42:25;7.90;99.90
18998;DHT22;9632;51.018;4.284;2023-03-01T16:44:55;7.90;99.90
18998;DHT22;9632;51.018;4.284;2023-03-01T16:47:21;7.80;99.90
18998;DHT22;9632;51.018;4.284;2023-03-01T16:49:47;7.80;99.90
18998;DHT22;9632;51.018;4.284;2023-03-01T16:52:16;7.90;99.90
18998;DHT22;9632;51.018;4.284;2023-03-01T16:54:42;7.80;99.90
18998;DHT22;9632;51.018;4.284;2023-03-01T16:57:08;7.80;99.90
18998;DHT22;9632;51.018;4.284;2023-03-01T16:59:33;7.90;99.90
18998;DHT22;9632;51.018;4.284;2023-03-01T17:01:59;7.90;99.90
18998;DHT22;9632;51.018;4.284;2023-03-01T17:04:24;7.90;99.90
18998;DHT22;9632;51.018;4.284;2023-03-01T17:06:50;7.90;99.90
18998;DHT22;9632;51.018;4.284;2023-03-01T17:09:16;7.90;99.90
18998;DHT22;9632;51.018;4.284;2023-03-01T17:11:42;7.90;99.90
18998;DHT22;9632;51.018;4.284;2023-03-01T17:14:08;8.00;99.90
18998;DHT22;9632;51.018;4.284;2023-03-01T17:16:34;7.90;99.90
18998;DHT22;9632;51.018;4.284;2023-03-01T17:19:00;7.90;99.90
18998;DHT22;9632;51.018;4.284;2023-03-01T17:21:26;7.90;99.90
18998;DHT22;9632;51.018;4.284;2023-03-01T17:23:55;7.80;99.90
18998;DHT22;9632;51.018;4.284;2023-03-01T17:26:21;7.80;99.90
18998;DHT22;9632;51.018;4.284;2023-03-01T17:28:47;7.70;99.90
18998;DHT22;9632;51.018;4.284;2023-03-01T17:31:18;7.70;99.90
18998;DHT22;9632;51.018;4.284;2023-03-01T17:33:43;7.60;99.90
18998;DHT22;9632;51.018;4.284;2023-03-01T17:36:09;7.60;99.90
18998;DHT22;9632;51.018;4.284;2023-03-01T17:38:35;7.60;99.90
18998;DHT22;9632;51.018;4.284;2023-03-01T17:41:02;7.50;99.90
18998;DHT22;9632;51.018;4.284;2023-03-01T17:43:28;7.50;99.90
18998;DHT22;9632;51.018;4.284;2023-03-01T17:45:55;7.40;99.90
18998;DHT22;9632;51.018;4.284;2023-03-01T17:48:21;7.40;99.90
18998;DHT22;9632;51.018;4.284;2023-03-01T17:50:47;7.40;99.90
18998;DHT22;9632;51.018;4.284;2023-03-01T17:53:14;7.30;99.90
18998;DHT22;9632;51.018;4.284;2023-03-01T17:55:41;7.30;99.90
18998;DHT22;9632;51.018;4.284;2023-03-01T17:58:09;7.30;99.90
18998;DHT22;9632;51.018;4.284;2023-03-01T18:00:35;7.20;99.90
18998;DHT22;9632;51.018;4.284;2023-03-01T18:03:01;7.20;99.90
18998;DHT22;9632;51.018;4.284;2023-03-01T18:05:30;7.20;99.90
18998;DHT22;9632;51.018;4.284;2023-03-01T18:07:56;7.10;99.90
18998;DHT22;9632;51.018;4.284;2023-03-01T18:10:21;7.10;99.90
18998;DHT22;9632;51.018;4.284;2023-03-01T18:12:47;7.00;99.90
18998;DHT22;9632;51.018;4.284;2023-03-01T18:15:12;7.00;99.90
18998;DHT22;9632;51.018;4.284;2023-03-01T18:17:38;7.00;99.90
18998;DHT22;9632;51.018;4.284;2023-03-01T18:20:05;6.90;99.90
18998;DHT22;9632;51.018;4.284;2023-03-01T18:22:34;6.90;99.90
18998;DHT22;9632;51.018;4.284;2023-03-01T18:25:00;6.80;99.90
18998;DHT22;9632;51.018;4.284;2023-03-01T18:27:25;6.70;99.90
18998;DHT22;9632;51.018;4.284;2023-03-01T18:29:51;6.70;99.90